logo
Search for airport 
image banner adimage banner adimage banner ad
image banner ad

ENDH - Vestre Viken Hospital (Helipad)

Located in Drammen, Norway

ICAO - , IATA -

Data provided by Airmate  

General information

Coordinates: N59°44'52" E10°11'51"
Elevation is 65 feet MSL.
Magnetic variation is 3.5° East
View others Airports in Akershus

Operational data

Special qualification required
Current time UTC:
Current local time:
Weather at : ENRY - Rygge ( 53 km )
METAR: ENRY 140150Z AUTO 21013KT 7000 FEW002/// BKN003/// OVC005/// 07/06 Q0995
TAF: TAF ENRY 132300Z 1400/1424 20010KT 4000 -RA BR BKN003 TEMPO 1400/1402 8000 SHRA BKN008 FEW020CB BECMG 1402/1404 26015KT CAVOK TEMPO 1406/1416 29020G32KT
View NOTAMs / SUP AIP / TFR affecting this airport [VIEW]
Communications frequencies: [VIEW]

Runways:

Airport contact information

Address: Drammen Norway

Satellite view of ENDH